sensor_id;sensor_type;location;lat;lon;timestamp;temperature;humidity
70557;DHT22;58107;51.034;3.726;2022-07-29T00:02:19;19.50;59.60
70557;DHT22;58107;51.034;3.726;2022-07-29T00:05:07;19.60;59.60
70557;DHT22;58107;51.034;3.726;2022-07-29T00:07:36;19.60;59.50
70557;DHT22;58107;51.034;3.726;2022-07-29T00:10:04;19.60;59.50
70557;DHT22;58107;51.034;3.726;2022-07-29T00:12:32;19.50;59.70
70557;DHT22;58107;51.034;3.726;2022-07-29T00:15:00;19.40;59.80
70557;DHT22;58107;51.034;3.726;2022-07-29T00:17:28;19.40;59.90
70557;DHT22;58107;51.034;3.726;2022-07-29T00:19:55;19.50;59.70
70557;DHT22;58107;51.034;3.726;2022-07-29T00:22:23;19.50;59.70
70557;DHT22;58107;51.034;3.726;2022-07-29T00:24:51;19.50;60.30
70557;DHT22;58107;51.034;3.726;2022-07-29T00:27:19;19.50;59.60
70557;DHT22;58107;51.034;3.726;2022-07-29T00:29:46;19.40;59.70
70557;DHT22;58107;51.034;3.726;2022-07-29T00:32:14;19.50;59.60
70557;DHT22;58107;51.034;3.726;2022-07-29T00:34:42;19.40;59.50
70557;DHT22;58107;51.034;3.726;2022-07-29T00:37:27;19.50;59.30
70557;DHT22;58107;51.034;3.726;2022-07-29T00:39:55;19.50;59.50
70557;DHT22;58107;51.034;3.726;2022-07-29T00:42:23;19.40;59.50
70557;DHT22;58107;51.034;3.726;2022-07-29T00:44:50;19.40;59.40
70557;DHT22;58107;51.034;3.726;2022-07-29T00:47:18;19.50;59.40
70557;DHT22;58107;51.034;3.726;2022-07-29T00:49:51;19.50;59.40
70557;DHT22;58107;51.034;3.726;2022-07-29T00:52:15;19.40;59.40
70557;DHT22;58107;51.034;3.726;2022-07-29T00:54:43;19.40;59.40
70557;DHT22;58107;51.034;3.726;2022-07-29T00:57:11;19.40;59.50
70557;DHT22;58107;51.034;3.726;2022-07-29T00:59:39;19.40;59.40
70557;DHT22;58107;51.034;3.726;2022-07-29T01:02:07;19.30;59.70
70557;DHT22;58107;51.034;3.726;2022-07-29T01:04:35;19.30;60.00
70557;DHT22;58107;51.034;3.726;2022-07-29T01:07:03;19.30;60.00
70557;DHT22;58107;51.034;3.726;2022-07-29T01:09:35;19.30;60.00
70557;DHT22;58107;51.034;3.726;2022-07-29T01:12:05;19.30;60.80
70557;DHT22;58107;51.034;3.726;2022-07-29T01:14:33;19.20;60.30
70557;DHT22;58107;51.034;3.726;2022-07-29T01:20:16;19.10;60.90
70557;DHT22;58107;51.034;3.726;2022-07-29T01:22:53;19.20;60.80
70557;DHT22;58107;51.034;3.726;2022-07-29T01:25:54;19.10;60.70
70557;DHT22;58107;51.034;3.726;2022-07-29T01:31:05;19.10;60.90
70557;DHT22;58107;51.034;3.726;2022-07-29T01:33:41;19.10;61.00
70557;DHT22;58107;51.034;3.726;2022-07-29T01:36:20;19.10;61.00
70557;DHT22;58107;51.034;3.726;2022-07-29T01:38:52;19.00;62.30
70557;DHT22;58107;51.034;3.726;2022-07-29T01:41:20;18.90;62.00
70557;DHT22;58107;51.034;3.726;2022-07-29T01:43:57;18.90;62.30
70557;DHT22;58107;51.034;3.726;2022-07-29T01:46:28;18.70;62.80
70557;DHT22;58107;51.034;3.726;2022-07-29T01:48:59;18.70;63.20
70557;DHT22;58107;51.034;3.726;2022-07-29T01:51:36;18.60;63.50
70557;DHT22;58107;51.034;3.726;2022-07-29T01:54:13;18.60;63.80
70557;DHT22;58107;51.034;3.726;2022-07-29T01:56:41;18.60;63.80
70557;DHT22;58107;51.034;3.726;2022-07-29T01:59:10;18.60;64.00
70557;DHT22;58107;51.034;3.726;2022-07-29T02:01:40;18.50;63.90
70557;DHT22;58107;51.034;3.726;2022-07-29T02:04:11;18.60;63.90
70557;DHT22;58107;51.034;3.726;2022-07-29T02:06:41;18.60;63.80
70557;DHT22;58107;51.034;3.726;2022-07-29T02:09:12;18.60;63.90
70557;DHT22;58107;51.034;3.726;2022-07-29T02:11:43;18.50;63.90
70557;DHT22;58107;51.034;3.726;2022-07-29T02:14:13;18.50;64.10
70557;DHT22;58107;51.034;3.726;2022-07-29T02:16:42;18.50;64.30
70557;DHT22;58107;51.034;3.726;2022-07-29T02:19:12;18.50;64.40
70557;DHT22;58107;51.034;3.726;2022-07-29T02:21:42;18.40;64.70
70557;DHT22;58107;51.034;3.726;2022-07-29T02:24:11;18.30;65.00
70557;DHT22;58107;51.034;3.726;2022-07-29T02:26:40;18.30;65.30
70557;DHT22;58107;51.034;3.726;2022-07-29T02:29:09;18.30;65.40
70557;DHT22;58107;51.034;3.726;2022-07-29T02:31:39;18.20;65.70
70557;DHT22;58107;51.034;3.726;2022-07-29T02:34:11;18.20;66.00
70557;DHT22;58107;51.034;3.726;2022-07-29T02:36:40;18.10;66.40
70557;DHT22;58107;51.034;3.726;2022-07-29T02:39:08;18.00;66.40
70557;DHT22;58107;51.034;3.726;2022-07-29T02:41:43;18.10;66.30
70557;DHT22;58107;51.034;3.726;2022-07-29T02:44:13;18.00;66.30
70557;DHT22;58107;51.034;3.726;2022-07-29T02:46:46;18.10;66.70
70557;DHT22;58107;51.034;3.726;2022-07-29T02:49:29;18.00;66.60
70557;DHT22;58107;51.034;3.726;2022-07-29T02:51:58;18.00;66.70
70557;DHT22;58107;51.034;3.726;2022-07-29T02:57:09;17.90;67.10
70557;DHT22;58107;51.034;3.726;2022-07-29T02:59:37;17.90;66.90
70557;DHT22;58107;51.034;3.726;2022-07-29T03:02:07;18.00;66.90
70557;DHT22;58107;51.034;3.726;2022-07-29T03:04:36;17.90;67.10
70557;DHT22;58107;51.034;3.726;2022-07-29T03:07:05;17.80;67.20
70557;DHT22;58107;51.034;3.726;2022-07-29T03:09:33;17.90;67.50
70557;DHT22;58107;51.034;3.726;2022-07-29T03:12:03;17.90;67.50
70557;DHT22;58107;51.034;3.726;2022-07-29T03:14:31;17.90;67.30
70557;DHT22;58107;51.034;3.726;2022-07-29T03:17:00;17.90;67.20
70557;DHT22;58107;51.034;3.726;2022-07-29T03:19:28;17.90;67.20
70557;DHT22;58107;51.034;3.726;2022-07-29T03:21:57;17.90;67.30
70557;DHT22;58107;51.034;3.726;2022-07-29T03:26:55;17.80;67.50
70557;DHT22;58107;51.034;3.726;2022-07-29T03:29:23;17.80;67.70
70557;DHT22;58107;51.034;3.726;2022-07-29T03:31:51;17.90;67.60
70557;DHT22;58107;51.034;3.726;2022-07-29T03:34:19;17.90;67.50
70557;DHT22;58107;51.034;3.726;2022-07-29T03:36:47;17.90;67.50
70557;DHT22;58107;51.034;3.726;2022-07-29T03:39:19;17.90;67.70
70557;DHT22;58107;51.034;3.726;2022-07-29T03:41:48;17.80;67.70
70557;DHT22;58107;51.034;3.726;2022-07-29T03:44:17;17.90;67.90
70557;DHT22;58107;51.034;3.726;2022-07-29T03:46:47;17.90;67.90
70557;DHT22;58107;51.034;3.726;2022-07-29T03:49:15;17.80;68.00
70557;DHT22;58107;51.034;3.726;2022-07-29T03:51:44;17.90;67.90
70557;DHT22;58107;51.034;3.726;2022-07-29T03:54:13;17.80;68.30
70557;DHT22;58107;51.034;3.726;2022-07-29T03:56:43;17.70;68.60
70557;DHT22;58107;51.034;3.726;2022-07-29T03:59:15;17.70;68.70
70557;DHT22;58107;51.034;3.726;2022-07-29T04:01:44;17.70;68.70
70557;DHT22;58107;51.034;3.726;2022-07-29T04:04:12;17.70;68.80
70557;DHT22;58107;51.034;3.726;2022-07-29T04:06:42;17.80;68.90
70557;DHT22;58107;51.034;3.726;2022-07-29T04:09:11;17.70;69.10
70557;DHT22;58107;51.034;3.726;2022-07-29T04:11:40;17.70;69.40
70557;DHT22;58107;51.034;3.726;2022-07-29T04:14:08;17.70;69.40
70557;DHT22;58107;51.034;3.726;2022-07-29T04:16:36;17.70;69.40
70557;DHT22;58107;51.034;3.726;2022-07-29T04:19:03;17.60;69.60
70557;DHT22;58107;51.034;3.726;2022-07-29T04:21:36;17.60;69.80
70557;DHT22;58107;51.034;3.726;2022-07-29T04:24:01;17.60;70.20
70557;DHT22;58107;51.034;3.726;2022-07-29T04:26:28;17.50;70.40
70557;DHT22;58107;51.034;3.726;2022-07-29T04:28:56;17.50;70.60
70557;DHT22;58107;51.034;3.726;2022-07-29T04:31:24;17.50;71.00
70557;DHT22;58107;51.034;3.726;2022-07-29T04:33:52;17.40;71.40
70557;DHT22;58107;51.034;3.726;2022-07-29T04:36:19;17.40;71.70
70557;DHT22;58107;51.034;3.726;2022-07-29T04:38:47;17.30;71.90
70557;DHT22;58107;51.034;3.726;2022-07-29T04:41:15;17.40;71.90
70557;DHT22;58107;51.034;3.726;2022-07-29T04:43:42;17.40;71.70
70557;DHT22;58107;51.034;3.726;2022-07-29T04:46:10;17.40;71.40
70557;DHT22;58107;51.034;3.726;2022-07-29T04:48:38;17.40;71.40
70557;DHT22;58107;51.034;3.726;2022-07-29T04:51:05;17.40;71.80
70557;DHT22;58107;51.034;3.726;2022-07-29T04:53:33;17.40;71.90
70557;DHT22;58107;51.034;3.726;2022-07-29T04:56:01;17.40;71.70
70557;DHT22;58107;51.034;3.726;2022-07-29T04:58:29;17.50;71.50
70557;DHT22;58107;51.034;3.726;2022-07-29T05:00:57;17.60;71.20
70557;DHT22;58107;51.034;3.726;2022-07-29T05:03:25;17.60;70.70
70557;DHT22;58107;51.034;3.726;2022-07-29T05:05:53;17.60;70.40
70557;DHT22;58107;51.034;3.726;2022-07-29T05:08:21;17.70;70.40
70557;DHT22;58107;51.034;3.726;2022-07-29T05:10:48;17.80;70.00
70557;DHT22;58107;51.034;3.726;2022-07-29T05:13:16;17.80;69.80
70557;DHT22;58107;51.034;3.726;2022-07-29T05:15:44;17.80;69.50
70557;DHT22;58107;51.034;3.726;2022-07-29T05:18:12;17.90;69.00
70557;DHT22;58107;51.034;3.726;2022-07-29T05:20:39;18.10;68.60
70557;DHT22;58107;51.034;3.726;2022-07-29T05:23:07;18.10;68.20
70557;DHT22;58107;51.034;3.726;2022-07-29T05:25:35;18.10;68.10
70557;DHT22;58107;51.034;3.726;2022-07-29T05:28:03;18.10;68.30
70557;DHT22;58107;51.034;3.726;2022-07-29T05:30:31;18.10;68.00
70557;DHT22;58107;51.034;3.726;2022-07-29T05:32:58;18.20;67.70
70557;DHT22;58107;51.034;3.726;2022-07-29T05:35:26;18.30;67.30
70557;DHT22;58107;51.034;3.726;2022-07-29T05:37:54;18.40;66.90
70557;DHT22;58107;51.034;3.726;2022-07-29T05:40:22;18.50;66.40
70557;DHT22;58107;51.034;3.726;2022-07-29T05:42:50;18.60;66.30
70557;DHT22;58107;51.034;3.726;2022-07-29T05:45:17;18.60;65.90
70557;DHT22;58107;51.034;3.726;2022-07-29T05:47:45;18.70;65.80
70557;DHT22;58107;51.034;3.726;2022-07-29T05:50:13;18.70;65.80
70557;DHT22;58107;51.034;3.726;2022-07-29T05:52:41;18.90;66.20
70557;DHT22;58107;51.034;3.726;2022-07-29T05:55:09;19.00;64.90
70557;DHT22;58107;51.034;3.726;2022-07-29T05:57:37;19.10;64.40
70557;DHT22;58107;51.034;3.726;2022-07-29T06:00:06;19.20;64.30
70557;DHT22;58107;51.034;3.726;2022-07-29T06:02:34;19.30;63.80
70557;DHT22;58107;51.034;3.726;2022-07-29T06:05:02;19.40;63.70
70557;DHT22;58107;51.034;3.726;2022-07-29T06:07:30;19.50;63.10
70557;DHT22;58107;51.034;3.726;2022-07-29T06:09:59;19.60;62.70
70557;DHT22;58107;51.034;3.726;2022-07-29T06:12:26;19.80;62.00
70557;DHT22;58107;51.034;3.726;2022-07-29T06:14:54;20.10;60.90
70557;DHT22;58107;51.034;3.726;2022-07-29T06:17:23;20.30;60.20
70557;DHT22;58107;51.034;3.726;2022-07-29T06:19:52;20.50;59.50
70557;DHT22;58107;51.034;3.726;2022-07-29T06:22:19;20.70;58.90
70557;DHT22;58107;51.034;3.726;2022-07-29T06:24:47;20.80;58.40
70557;DHT22;58107;51.034;3.726;2022-07-29T06:27:15;20.80;58.30
70557;DHT22;58107;51.034;3.726;2022-07-29T06:29:42;21.00;57.80
70557;DHT22;58107;51.034;3.726;2022-07-29T06:32:10;21.00;57.90
70557;DHT22;58107;51.034;3.726;2022-07-29T06:34:38;21.00;58.00
70557;DHT22;58107;51.034;3.726;2022-07-29T06:37:07;21.10;57.40
70557;DHT22;58107;51.034;3.726;2022-07-29T06:39:36;21.30;57.30
70557;DHT22;58107;51.034;3.726;2022-07-29T06:42:04;21.40;56.90
70557;DHT22;58107;51.034;3.726;2022-07-29T06:44:32;21.60;56.00
70557;DHT22;58107;51.034;3.726;2022-07-29T06:47:01;21.90;55.40
70557;DHT22;58107;51.034;3.726;2022-07-29T06:49:34;22.30;54.70
70557;DHT22;58107;51.034;3.726;2022-07-29T06:52:02;22.50;53.90
70557;DHT22;58107;51.034;3.726;2022-07-29T06:54:30;22.60;53.00
70557;DHT22;58107;51.034;3.726;2022-07-29T06:56:58;22.80;52.60
70557;DHT22;58107;51.034;3.726;2022-07-29T06:59:26;22.90;51.80
70557;DHT22;58107;51.034;3.726;2022-07-29T07:01:53;23.00;51.60
70557;DHT22;58107;51.034;3.726;2022-07-29T07:04:22;23.10;51.20
70557;DHT22;58107;51.034;3.726;2022-07-29T07:06:49;23.20;51.10
70557;DHT22;58107;51.034;3.726;2022-07-29T07:09:18;23.20;50.90
70557;DHT22;58107;51.034;3.726;2022-07-29T07:11:46;23.40;50.40
70557;DHT22;58107;51.034;3.726;2022-07-29T07:14:14;23.50;49.90
70557;DHT22;58107;51.034;3.726;2022-07-29T07:16:41;23.70;49.90
70557;DHT22;58107;51.034;3.726;2022-07-29T07:19:09;23.80;49.70
70557;DHT22;58107;51.034;3.726;2022-07-29T07:21:37;24.20;49.30
70557;DHT22;58107;51.034;3.726;2022-07-29T07:24:04;24.40;48.60
70557;DHT22;58107;51.034;3.726;2022-07-29T07:26:32;24.70;47.90
70557;DHT22;58107;51.034;3.726;2022-07-29T07:29:00;24.90;47.40
70557;DHT22;58107;51.034;3.726;2022-07-29T07:31:28;25.00;47.00
70557;DHT22;58107;51.034;3.726;2022-07-29T07:33:55;24.90;46.90
70557;DHT22;58107;51.034;3.726;2022-07-29T07:36:23;25.00;47.10
70557;DHT22;58107;51.034;3.726;2022-07-29T07:38:51;25.10;46.50
70557;DHT22;58107;51.034;3.726;2022-07-29T07:41:19;25.60;45.90
70557;DHT22;58107;51.034;3.726;2022-07-29T07:43:47;25.80;45.20
70557;DHT22;58107;51.034;3.726;2022-07-29T07:46:15;25.90;44.90
70557;DHT22;58107;51.034;3.726;2022-07-29T07:48:42;25.90;44.70
70557;DHT22;58107;51.034;3.726;2022-07-29T07:51:10;26.10;44.60
70557;DHT22;58107;51.034;3.726;2022-07-29T07:53:38;26.10;44.20
70557;DHT22;58107;51.034;3.726;2022-07-29T07:56:06;26.20;44.20
70557;DHT22;58107;51.034;3.726;2022-07-29T07:58:34;26.30;44.00
70557;DHT22;58107;51.034;3.726;2022-07-29T08:01:02;26.20;44.00
70557;DHT22;58107;51.034;3.726;2022-07-29T08:03:30;26.20;44.70
70557;DHT22;58107;51.034;3.726;2022-07-29T08:05:58;26.30;44.40
70557;DHT22;58107;51.034;3.726;2022-07-29T08:08:26;26.50;44.10
70557;DHT22;58107;51.034;3.726;2022-07-29T08:10:53;26.50;43.70
70557;DHT22;58107;51.034;3.726;2022-07-29T08:13:26;26.70;43.30
70557;DHT22;58107;51.034;3.726;2022-07-29T08:15:54;26.70;43.10
70557;DHT22;58107;51.034;3.726;2022-07-29T08:18:30;26.70;43.50
70557;DHT22;58107;51.034;3.726;2022-07-29T08:20:54;26.40;43.70
70557;DHT22;58107;51.034;3.726;2022-07-29T08:23:22;26.40;44.50
70557;DHT22;58107;51.034;3.726;2022-07-29T08:25:50;26.40;44.10
70557;DHT22;58107;51.034;3.726;2022-07-29T08:28:18;26.50;44.30
70557;DHT22;58107;51.034;3.726;2022-07-29T08:30:46;26.80;44.10
70557;DHT22;58107;51.034;3.726;2022-07-29T08:33:13;26.80;42.70
70557;DHT22;58107;51.034;3.726;2022-07-29T08:35:41;26.70;42.60
70557;DHT22;58107;51.034;3.726;2022-07-29T08:38:09;26.70;42.90
70557;DHT22;58107;51.034;3.726;2022-07-29T08:40:37;26.70;43.20
70557;DHT22;58107;51.034;3.726;2022-07-29T08:43:07;26.80;42.30
70557;DHT22;58107;51.034;3.726;2022-07-29T08:45:43;27.10;42.00
70557;DHT22;58107;51.034;3.726;2022-07-29T08:48:12;27.50;41.20
70557;DHT22;58107;51.034;3.726;2022-07-29T08:50:41;27.50;40.10
70557;DHT22;58107;51.034;3.726;2022-07-29T08:53:13;27.50;40.70
70557;DHT22;58107;51.034;3.726;2022-07-29T08:55:43;27.80;40.40
70557;DHT22;58107;51.034;3.726;2022-07-29T08:58:12;27.90;40.00
70557;DHT22;58107;51.034;3.726;2022-07-29T09:00:43;27.80;40.60
70557;DHT22;58107;51.034;3.726;2022-07-29T09:03:14;28.10;39.40
70557;DHT22;58107;51.034;3.726;2022-07-29T09:05:43;28.50;39.20
70557;DHT22;58107;51.034;3.726;2022-07-29T09:08:13;28.70;38.70
70557;DHT22;58107;51.034;3.726;2022-07-29T09:10:41;27.10;41.40
70557;DHT22;58107;51.034;3.726;2022-07-29T09:13:09;27.90;39.50
70557;DHT22;58107;51.034;3.726;2022-07-29T09:15:37;28.60;38.10
70557;DHT22;58107;51.034;3.726;2022-07-29T09:18:05;28.90;38.20
70557;DHT22;58107;51.034;3.726;2022-07-29T09:20:33;29.20;37.40
70557;DHT22;58107;51.034;3.726;2022-07-29T09:23:19;29.20;37.10
70557;DHT22;58107;51.034;3.726;2022-07-29T09:25:46;29.30;37.10
70557;DHT22;58107;51.034;3.726;2022-07-29T09:28:16;29.20;37.50
70557;DHT22;58107;51.034;3.726;2022-07-29T09:30:56;29.20;37.70
70557;DHT22;58107;51.034;3.726;2022-07-29T09:33:30;29.20;37.50
70557;DHT22;58107;51.034;3.726;2022-07-29T09:36:08;29.10;37.90
70557;DHT22;58107;51.034;3.726;2022-07-29T09:38:36;29.10;38.50
70557;DHT22;58107;51.034;3.726;2022-07-29T09:41:05;29.10;38.30
70557;DHT22;58107;51.034;3.726;2022-07-29T09:43:35;29.00;35.80
70557;DHT22;58107;51.034;3.726;2022-07-29T09:46:13;28.50;38.30
70557;DHT22;58107;51.034;3.726;2022-07-29T09:48:41;27.90;38.30
70557;DHT22;58107;51.034;3.726;2022-07-29T09:51:19;27.40;39.50
70557;DHT22;58107;51.034;3.726;2022-07-29T09:53:46;27.00;40.90
70557;DHT22;58107;51.034;3.726;2022-07-29T09:56:14;26.70;41.50
70557;DHT22;58107;51.034;3.726;2022-07-29T09:58:42;26.40;42.40
70557;DHT22;58107;51.034;3.726;2022-07-29T10:01:09;26.20;42.40
70557;DHT22;58107;51.034;3.726;2022-07-29T10:03:51;26.00;41.90
70557;DHT22;58107;51.034;3.726;2022-07-29T10:06:19;25.60;42.80
70557;DHT22;58107;51.034;3.726;2022-07-29T10:08:47;25.40;42.70
70557;DHT22;58107;51.034;3.726;2022-07-29T10:11:17;25.50;43.20
70557;DHT22;58107;51.034;3.726;2022-07-29T10:13:47;25.50;44.20
70557;DHT22;58107;51.034;3.726;2022-07-29T10:16:34;25.50;44.20
70557;DHT22;58107;51.034;3.726;2022-07-29T10:19:03;25.60;43.20
70557;DHT22;58107;51.034;3.726;2022-07-29T10:21:31;25.70;42.80
70557;DHT22;58107;51.034;3.726;2022-07-29T10:24:00;25.80;42.70
70557;DHT22;58107;51.034;3.726;2022-07-29T10:26:29;25.70;42.80
70557;DHT22;58107;51.034;3.726;2022-07-29T10:28:57;25.70;42.20
70557;DHT22;58107;51.034;3.726;2022-07-29T10:31:34;25.70;42.70
70557;DHT22;58107;51.034;3.726;2022-07-29T10:42:27;26.10;40.80
70557;DHT22;58107;51.034;3.726;2022-07-29T10:44:56;26.20;41.00
70557;DHT22;58107;51.034;3.726;2022-07-29T10:47:25;26.50;40.50
70557;DHT22;58107;51.034;3.726;2022-07-29T10:50:00;27.10;39.40
70557;DHT22;58107;51.034;3.726;2022-07-29T10:55:38;29.00;35.80
70557;DHT22;58107;51.034;3.726;2022-07-29T10:58:21;30.10;33.60
70557;DHT22;58107;51.034;3.726;2022-07-29T11:01:28;31.00;31.10
70557;DHT22;58107;51.034;3.726;2022-07-29T11:03:44;31.30;29.50
70557;DHT22;58107;51.034;3.726;2022-07-29T11:06:18;31.20;29.40
70557;DHT22;58107;51.034;3.726;2022-07-29T11:08:46;31.00;29.80
70557;DHT22;58107;51.034;3.726;2022-07-29T11:13:57;30.70;29.90
70557;DHT22;58107;51.034;3.726;2022-07-29T11:16:25;30.10;31.00
70557;DHT22;58107;51.034;3.726;2022-07-29T11:21:44;28.40;32.40
70557;DHT22;58107;51.034;3.726;2022-07-29T11:24:21;28.00;33.50
70557;DHT22;58107;51.034;3.726;2022-07-29T11:29:58;27.90;34.30
70557;DHT22;58107;51.034;3.726;2022-07-29T11:32:42;28.40;33.80
70557;DHT22;58107;51.034;3.726;2022-07-29T11:37:45;30.30;31.70
70557;DHT22;58107;51.034;3.726;2022-07-29T11:40:14;29.80;31.70
70557;DHT22;58107;51.034;3.726;2022-07-29T11:42:44;30.80;31.10
70557;DHT22;58107;51.034;3.726;2022-07-29T11:45:23;32.40;29.20
70557;DHT22;58107;51.034;3.726;2022-07-29T11:47:55;34.10;27.30
70557;DHT22;58107;51.034;3.726;2022-07-29T11:50:33;34.50;26.30
70557;DHT22;58107;51.034;3.726;2022-07-29T11:53:10;35.50;25.50
70557;DHT22;58107;51.034;3.726;2022-07-29T11:55:32;35.80;24.50
70557;DHT22;58107;51.034;3.726;2022-07-29T11:58:02;33.90;26.40
70557;DHT22;58107;51.034;3.726;2022-07-29T12:00:38;35.10;25.60
70557;DHT22;58107;51.034;3.726;2022-07-29T12:03:08;35.90;24.50
70557;DHT22;58107;51.034;3.726;2022-07-29T12:05:44;37.00;23.40
70557;DHT22;58107;51.034;3.726;2022-07-29T12:08:21;36.00;23.50
70557;DHT22;58107;51.034;3.726;2022-07-29T12:10:48;37.00;23.00
70557;DHT22;58107;51.034;3.726;2022-07-29T12:13:18;36.60;22.60
70557;DHT22;58107;51.034;3.726;2022-07-29T12:15:55;35.00;23.90
70557;DHT22;58107;51.034;3.726;2022-07-29T12:18:25;35.30;23.80
70557;DHT22;58107;51.034;3.726;2022-07-29T12:21:12;35.50;23.20
70557;DHT22;58107;51.034;3.726;2022-07-29T12:23:41;35.60;23.30
70557;DHT22;58107;51.034;3.726;2022-07-29T12:26:10;35.40;23.70
70557;DHT22;58107;51.034;3.726;2022-07-29T12:28:39;35.60;23.60
70557;DHT22;58107;51.034;3.726;2022-07-29T12:31:14;37.30;22.30
70557;DHT22;58107;51.034;3.726;2022-07-29T12:33:42;38.30;21.20
70557;DHT22;58107;51.034;3.726;2022-07-29T12:36:13;38.00;21.50
70557;DHT22;58107;51.034;3.726;2022-07-29T12:38:41;39.20;20.90
70557;DHT22;58107;51.034;3.726;2022-07-29T12:41:09;39.40;20.10
70557;DHT22;58107;51.034;3.726;2022-07-29T12:43:37;40.30;19.50
70557;DHT22;58107;51.034;3.726;2022-07-29T12:46:15;40.40;19.10
70557;DHT22;58107;51.034;3.726;2022-07-29T12:48:43;40.80;18.90
70557;DHT22;58107;51.034;3.726;2022-07-29T12:51:11;40.50;19.00
70557;DHT22;58107;51.034;3.726;2022-07-29T12:53:40;39.80;19.20
70557;DHT22;58107;51.034;3.726;2022-07-29T12:56:14;38.70;19.30
70557;DHT22;58107;51.034;3.726;2022-07-29T12:58:40;38.70;20.20
70557;DHT22;58107;51.034;3.726;2022-07-29T13:03:57;40.50;18.40
70557;DHT22;58107;51.034;3.726;2022-07-29T13:06:41;41.40;18.50
70557;DHT22;58107;51.034;3.726;2022-07-29T13:09:18;40.60;18.80
70557;DHT22;58107;51.034;3.726;2022-07-29T13:11:48;40.40;19.20
70557;DHT22;58107;51.034;3.726;2022-07-29T13:14:41;41.40;18.60
70557;DHT22;58107;51.034;3.726;2022-07-29T13:17:10;42.60;18.00
70557;DHT22;58107;51.034;3.726;2022-07-29T13:19:49;43.30;17.70
70557;DHT22;58107;51.034;3.726;2022-07-29T13:22:19;42.70;17.70
70557;DHT22;58107;51.034;3.726;2022-07-29T13:24:55;42.30;18.30
70557;DHT22;58107;51.034;3.726;2022-07-29T13:27:25;41.60;18.60
70557;DHT22;58107;51.034;3.726;2022-07-29T13:29:54;41.90;18.60
70557;DHT22;58107;51.034;3.726;2022-07-29T13:32:24;41.20;19.30
70557;DHT22;58107;51.034;3.726;2022-07-29T13:34:53;40.50;20.20
70557;DHT22;58107;51.034;3.726;2022-07-29T13:37:21;40.00;20.30
70557;DHT22;58107;51.034;3.726;2022-07-29T13:39:48;39.50;21.30
70557;DHT22;58107;51.034;3.726;2022-07-29T13:42:16;39.20;21.40
70557;DHT22;58107;51.034;3.726;2022-07-29T13:44:43;39.60;21.30
70557;DHT22;58107;51.034;3.726;2022-07-29T13:47:11;40.70;20.00
70557;DHT22;58107;51.034;3.726;2022-07-29T13:49:39;40.40;19.80
70557;DHT22;58107;51.034;3.726;2022-07-29T13:52:07;38.90;20.50
70557;DHT22;58107;51.034;3.726;2022-07-29T13:54:34;36.70;22.60
70557;DHT22;58107;51.034;3.726;2022-07-29T13:57:05;35.80;23.80
70557;DHT22;58107;51.034;3.726;2022-07-29T13:59:33;36.10;23.70
70557;DHT22;58107;51.034;3.726;2022-07-29T14:02:01;38.40;22.10
70557;DHT22;58107;51.034;3.726;2022-07-29T14:04:29;37.70;22.00
70557;DHT22;58107;51.034;3.726;2022-07-29T14:06:56;38.00;22.30
70557;DHT22;58107;51.034;3.726;2022-07-29T14:09:24;38.90;21.20
70557;DHT22;58107;51.034;3.726;2022-07-29T14:11:52;37.50;22.10
70557;DHT22;58107;51.034;3.726;2022-07-29T14:14:20;35.60;24.60
70557;DHT22;58107;51.034;3.726;2022-07-29T14:16:48;37.10;23.80
70557;DHT22;58107;51.034;3.726;2022-07-29T14:19:16;37.10;23.20
70557;DHT22;58107;51.034;3.726;2022-07-29T14:21:43;38.30;22.60
70557;DHT22;58107;51.034;3.726;2022-07-29T14:24:12;38.40;21.10
70557;DHT22;58107;51.034;3.726;2022-07-29T14:26:40;37.40;22.20
70557;DHT22;58107;51.034;3.726;2022-07-29T14:29:08;38.30;21.10
70557;DHT22;58107;51.034;3.726;2022-07-29T14:31:35;38.90;20.70
70557;DHT22;58107;51.034;3.726;2022-07-29T14:34:03;37.70;21.30
70557;DHT22;58107;51.034;3.726;2022-07-29T14:36:31;39.30;20.90
70557;DHT22;58107;51.034;3.726;2022-07-29T14:38:59;41.10;19.60
70557;DHT22;58107;51.034;3.726;2022-07-29T14:41:27;40.70;18.90
70557;DHT22;58107;51.034;3.726;2022-07-29T14:43:55;39.70;20.00
70557;DHT22;58107;51.034;3.726;2022-07-29T14:46:23;40.10;20.30
70557;DHT22;58107;51.034;3.726;2022-07-29T14:48:50;38.20;21.50
70557;DHT22;58107;51.034;3.726;2022-07-29T14:51:18;36.20;23.50
70557;DHT22;58107;51.034;3.726;2022-07-29T14:53:46;32.70;27.20
70557;DHT22;58107;51.034;3.726;2022-07-29T14:56:13;32.60;27.80
70557;DHT22;58107;51.034;3.726;2022-07-29T14:58:41;33.00;27.40
70557;DHT22;58107;51.034;3.726;2022-07-29T15:01:09;32.90;27.40
70557;DHT22;58107;51.034;3.726;2022-07-29T15:03:36;33.20;27.20
70557;DHT22;58107;51.034;3.726;2022-07-29T15:06:04;34.00;26.30
70557;DHT22;58107;51.034;3.726;2022-07-29T15:08:32;34.50;25.90
70557;DHT22;58107;51.034;3.726;2022-07-29T15:11:00;34.90;25.40
70557;DHT22;58107;51.034;3.726;2022-07-29T15:13:28;34.80;25.40
70557;DHT22;58107;51.034;3.726;2022-07-29T15:15:55;33.70;26.50
70557;DHT22;58107;51.034;3.726;2022-07-29T15:18:23;32.90;27.20
70557;DHT22;58107;51.034;3.726;2022-07-29T15:20:51;33.00;27.20
70557;DHT22;58107;51.034;3.726;2022-07-29T15:23:19;32.80;27.30
70557;DHT22;58107;51.034;3.726;2022-07-29T15:25:46;32.20;28.20
70557;DHT22;58107;51.034;3.726;2022-07-29T15:28:14;31.00;30.10
70557;DHT22;58107;51.034;3.726;2022-07-29T15:30:42;30.80;30.00
70557;DHT22;58107;51.034;3.726;2022-07-29T15:33:10;30.60;30.50
70557;DHT22;58107;51.034;3.726;2022-07-29T15:35:38;30.30;31.10
70557;DHT22;58107;51.034;3.726;2022-07-29T15:38:05;30.20;31.30
70557;DHT22;58107;51.034;3.726;2022-07-29T15:40:33;30.00;31.70
70557;DHT22;58107;51.034;3.726;2022-07-29T15:43:05;29.70;32.50
70557;DHT22;58107;51.034;3.726;2022-07-29T15:45:37;29.60;33.20
70557;DHT22;58107;51.034;3.726;2022-07-29T15:48:07;29.20;34.10
70557;DHT22;58107;51.034;3.726;2022-07-29T15:50:35;29.00;34.70
70557;DHT22;58107;51.034;3.726;2022-07-29T15:53:03;29.10;34.50
70557;DHT22;58107;51.034;3.726;2022-07-29T15:55:31;29.00;34.50
70557;DHT22;58107;51.034;3.726;2022-07-29T15:57:58;28.90;34.40
70557;DHT22;58107;51.034;3.726;2022-07-29T16:00:26;28.60;34.80
70557;DHT22;58107;51.034;3.726;2022-07-29T16:02:54;28.10;36.10
70557;DHT22;58107;51.034;3.726;2022-07-29T16:05:22;27.70;36.70
70557;DHT22;58107;51.034;3.726;2022-07-29T16:07:50;27.50;37.10
70557;DHT22;58107;51.034;3.726;2022-07-29T16:10:17;27.60;37.20
70557;DHT22;58107;51.034;3.726;2022-07-29T16:12:45;27.70;36.80
70557;DHT22;58107;51.034;3.726;2022-07-29T16:15:12;27.90;36.70
70557;DHT22;58107;51.034;3.726;2022-07-29T16:17:40;28.00;36.10
70557;DHT22;58107;51.034;3.726;2022-07-29T16:20:08;28.00;36.30
70557;DHT22;58107;51.034;3.726;2022-07-29T16:22:36;27.90;36.70